createdAt,value
2022-11-27T00:00:41.587Z,5.69
2022-11-27T00:01:41.570Z,5.70
2022-11-27T00:02:41.657Z,5.69
2022-11-27T00:03:41.657Z,5.70
2022-11-27T00:04:41.587Z,5.69
2022-11-27T00:05:41.659Z,5.64
2022-11-27T00:06:41.569Z,5.64
2022-11-27T00:07:41.541Z,5.62
2022-11-27T00:08:41.521Z,5.65
2022-11-27T00:09:41.790Z,5.65
2022-11-27T00:10:41.498Z,5.65
2022-11-27T00:11:41.459Z,5.62
2022-11-27T00:12:41.435Z,5.59
2022-11-27T00:13:41.447Z,5.64
2022-11-27T00:14:41.496Z,5.61
2022-11-27T00:15:41.512Z,5.59
2022-11-27T00:16:41.411Z,5.59
2022-11-27T00:17:41.419Z,5.56
2022-11-27T00:18:41.378Z,5.58
2022-11-27T00:19:41.697Z,5.59
2022-11-27T00:20:41.384Z,5.58
2022-11-27T00:21:41.355Z,5.55
2022-11-27T00:22:41.406Z,5.52
2022-11-27T00:23:41.348Z,5.54
2022-11-27T00:24:41.552Z,5.55
2022-11-27T00:25:41.315Z,5.55
2022-11-27T00:26:41.418Z,5.55
2022-11-27T00:27:41.295Z,5.56
2022-11-27T00:28:41.284Z,5.55
2022-11-27T00:29:41.261Z,5.51
2022-11-27T00:30:41.263Z,5.52
2022-11-27T00:31:41.265Z,5.51
2022-11-27T00:32:41.273Z,5.47
2022-11-27T00:33:41.233Z,5.46
2022-11-27T00:34:41.451Z,5.49
2022-11-27T00:35:41.258Z,5.47
2022-11-27T00:36:46.608Z,5.47
2022-11-27T00:37:42.176Z,5.44
2022-11-27T00:38:41.178Z,5.43
2022-11-27T00:39:41.168Z,5.43
2022-11-27T00:40:41.181Z,5.44
2022-11-27T00:41:41.133Z,5.44
2022-11-27T00:42:41.124Z,5.47
2022-11-27T00:43:44.605Z,5.41
2022-11-27T00:44:41.238Z,5.41
2022-11-27T00:45:41.092Z,5.41
2022-11-27T00:46:41.152Z,5.40
2022-11-27T00:47:41.076Z,5.38
2022-11-27T00:48:41.050Z,5.37
2022-11-27T00:49:41.050Z,5.36
2022-11-27T00:50:41.081Z,5.37
2022-11-27T00:51:41.032Z,5.34
2022-11-27T00:52:41.020Z,5.29
2022-11-27T00:53:41.011Z,5.31
2022-11-27T00:54:41.213Z,5.33
2022-11-27T00:55:41.000Z,5.31
2022-11-27T00:56:40.982Z,5.29
2022-11-27T00:57:41.045Z,5.31
2022-11-27T00:58:40.999Z,5.31
2022-11-27T00:59:41.003Z,5.28
2022-11-27T01:00:40.923Z,5.33
2022-11-27T01:01:41.011Z,5.28
2022-11-27T01:02:40.989Z,5.31
2022-11-27T01:03:40.907Z,5.28
2022-11-27T01:04:41.135Z,5.28
2022-11-27T01:05:40.889Z,5.26
2022-11-27T01:06:40.867Z,5.26
2022-11-27T01:07:40.876Z,5.28
2022-11-27T01:08:40.846Z,5.25
2022-11-27T01:09:40.835Z,5.23
2022-11-27T01:10:40.902Z,5.25
2022-11-27T01:11:40.819Z,5.25
2022-11-27T01:12:40.798Z,5.25
2022-11-27T01:13:40.822Z,5.22
2022-11-27T01:14:41.098Z,5.19
2022-11-27T01:15:40.926Z,5.19
2022-11-27T01:16:43.138Z,5.19
2022-11-27T01:17:40.786Z,5.18
2022-11-27T01:18:40.808Z,5.16
2022-11-27T01:19:40.757Z,5.15
2022-11-27T01:20:40.720Z,5.15
2022-11-27T01:21:40.736Z,5.15
2022-11-27T01:22:40.768Z,5.15
2022-11-27T01:23:40.711Z,5.13
2022-11-27T01:24:40.836Z,5.12
2022-11-27T01:25:40.813Z,5.13
2022-11-27T01:26:40.683Z,5.10
2022-11-27T01:27:40.674Z,5.10
2022-11-27T01:28:40.662Z,5.12
2022-11-27T01:29:40.649Z,5.12
2022-11-27T01:30:40.614Z,5.08
2022-11-27T01:31:40.681Z,5.08
2022-11-27T01:32:40.624Z,5.08
2022-11-27T01:33:40.602Z,5.05
2022-11-27T01:34:40.721Z,5.07
2022-11-27T01:35:40.580Z,5.07
2022-11-27T01:36:40.584Z,5.02
2022-11-27T01:37:40.538Z,5.04
2022-11-27T01:38:40.527Z,5.02
2022-11-27T01:39:40.528Z,5.02
2022-11-27T01:40:40.518Z,5.04
2022-11-27T01:41:40.517Z,5.02
2022-11-27T01:42:40.497Z,5.00
2022-11-27T01:43:40.476Z,4.98
2022-11-27T01:44:40.650Z,4.98
2022-11-27T01:45:40.471Z,4.97
2022-11-27T01:46:40.506Z,4.98
2022-11-27T01:47:40.435Z,4.94
2022-11-27T01:48:40.415Z,4.97
2022-11-27T01:49:40.423Z,4.92
2022-11-27T01:50:40.397Z,4.95
2022-11-27T01:51:40.408Z,4.92
2022-11-27T01:52:40.386Z,4.90
2022-11-27T01:53:40.545Z,4.92
2022-11-27T01:54:40.666Z,4.92
2022-11-27T01:55:40.361Z,4.89
2022-11-27T01:56:40.398Z,4.89
2022-11-27T01:57:40.332Z,4.86
2022-11-27T01:58:40.305Z,4.87
2022-11-27T01:59:40.332Z,4.86
2022-11-27T02:00:40.295Z,4.86
2022-11-27T02:01:40.343Z,4.82
2022-11-27T02:02:40.289Z,4.84
2022-11-27T02:03:40.301Z,4.83
2022-11-27T02:04:40.572Z,4.83
2022-11-27T02:05:40.258Z,4.79
2022-11-27T02:06:40.255Z,4.79
2022-11-27T02:07:40.305Z,4.79
2022-11-27T02:08:40.215Z,4.82
2022-11-27T02:09:40.203Z,4.79
2022-11-27T02:10:40.199Z,4.76
2022-11-27T02:11:40.183Z,4.82
2022-11-27T02:12:40.183Z,4.79
2022-11-27T02:13:40.168Z,4.75
2022-11-27T02:14:40.338Z,4.75
2022-11-27T02:15:40.196Z,4.76
2022-11-27T02:16:40.209Z,4.78
2022-11-27T02:17:40.127Z,4.75
2022-11-27T02:18:40.110Z,4.76
2022-11-27T02:19:40.107Z,4.75
2022-11-27T02:20:40.112Z,4.71
2022-11-27T02:21:40.076Z,4.70
2022-11-27T02:22:40.087Z,4.71
2022-11-27T02:23:40.062Z,4.71
2022-11-27T02:24:40.367Z,4.70
2022-11-27T02:25:40.063Z,4.70
2022-11-27T02:26:40.033Z,4.67
2022-11-27T02:27:40.022Z,4.70
2022-11-27T02:28:39.993Z,4.68
2022-11-27T02:29:39.998Z,4.68
2022-11-27T02:30:39.973Z,4.66
2022-11-27T02:31:40.088Z,4.66
2022-11-27T02:32:40.004Z,4.63
2022-11-27T02:33:39.951Z,4.63
2022-11-27T02:34:40.307Z,4.61
2022-11-27T02:35:39.923Z,4.60
2022-11-27T02:36:39.924Z,4.60
2022-11-27T02:37:39.924Z,4.58
2022-11-27T02:38:39.890Z,4.61
2022-11-27T02:39:39.878Z,4.57
2022-11-27T02:40:39.859Z,4.53
2022-11-27T02:41:39.907Z,4.53
2022-11-27T02:42:39.898Z,4.53
2022-11-27T02:43:39.874Z,4.52
2022-11-27T02:44:40.111Z,4.53
2022-11-27T02:45:39.814Z,4.49
2022-11-27T02:46:39.888Z,4.49
2022-11-27T02:47:39.843Z,4.50
2022-11-27T02:48:39.839Z,4.48
2022-11-27T02:49:39.771Z,4.49
2022-11-27T02:50:39.770Z,4.46
2022-11-27T02:51:39.762Z,4.46
2022-11-27T02:52:39.756Z,4.46
2022-11-27T02:53:39.741Z,4.45
2022-11-27T02:54:40.002Z,4.40
2022-11-27T02:55:39.742Z,4.42
2022-11-27T02:56:39.689Z,4.45
2022-11-27T02:57:39.716Z,4.40
2022-11-27T02:58:39.673Z,4.40
2022-11-27T02:59:39.662Z,4.36
2022-11-27T03:00:39.703Z,4.38
2022-11-27T03:01:39.733Z,4.36
2022-11-27T03:02:39.920Z,4.34
2022-11-27T03:03:39.619Z,4.34
2022-11-27T03:04:39.998Z,4.34
2022-11-27T03:05:39.621Z,4.34
2022-11-27T03:06:39.586Z,4.34
2022-11-27T03:07:39.711Z,4.32
2022-11-27T03:08:39.597Z,4.34
2022-11-27T03:09:40.356Z,4.30
2022-11-27T03:10:39.730Z,4.28
2022-11-27T03:11:39.541Z,4.32
2022-11-27T03:12:39.559Z,4.31
2022-11-27T03:13:39.671Z,4.30
2022-11-27T03:14:40.769Z,4.31
2022-11-27T03:15:39.577Z,4.28
2022-11-27T03:16:39.497Z,4.28
2022-11-27T03:17:39.478Z,4.27
2022-11-27T03:18:39.467Z,4.27
2022-11-27T03:19:39.448Z,4.28
2022-11-27T03:20:39.442Z,4.24
2022-11-27T03:21:39.463Z,4.27
2022-11-27T03:22:39.432Z,4.27
2022-11-27T03:23:39.468Z,4.24
2022-11-27T03:24:39.690Z,4.25
2022-11-27T03:25:39.400Z,4.22
2022-11-27T03:26:39.378Z,4.25
2022-11-27T03:27:39.379Z,4.24
2022-11-27T03:28:39.443Z,4.24
2022-11-27T03:29:39.358Z,4.22
2022-11-27T03:30:39.340Z,4.21
2022-11-27T03:31:39.358Z,4.22
2022-11-27T03:32:39.315Z,4.22
2022-11-27T03:33:39.325Z,4.21
2022-11-27T03:34:39.542Z,4.20
2022-11-27T03:35:39.295Z,4.18
2022-11-27T03:36:39.284Z,4.20
2022-11-27T03:37:39.274Z,4.20
2022-11-27T03:38:39.276Z,4.20
2022-11-27T03:39:39.277Z,4.18
2022-11-27T03:40:39.227Z,4.18
2022-11-27T03:41:39.230Z,4.16
2022-11-27T03:42:39.244Z,4.13
2022-11-27T03:43:39.228Z,4.16
2022-11-27T03:44:39.430Z,4.16
2022-11-27T03:45:39.195Z,4.13
2022-11-27T03:46:39.190Z,4.13
2022-11-27T03:47:39.194Z,4.12
2022-11-27T03:48:39.145Z,4.10
2022-11-27T03:49:39.144Z,4.10
2022-11-27T03:50:39.146Z,4.10
2022-11-27T03:51:39.175Z,4.10
2022-11-27T03:52:39.100Z,4.09
2022-11-27T03:53:39.117Z,4.09
2022-11-27T03:54:39.407Z,4.07
2022-11-27T03:55:39.074Z,4.07
2022-11-27T03:56:39.062Z,4.06
2022-11-27T03:57:39.053Z,4.04
2022-11-27T03:58:39.074Z,4.06
2022-11-27T03:59:39.050Z,4.07
2022-11-27T04:00:39.023Z,4.06
2022-11-27T04:01:39.079Z,4.06
2022-11-27T04:02:39.001Z,4.04
2022-11-27T04:03:39.012Z,4.04
2022-11-27T04:04:39.229Z,4.03
2022-11-27T04:05:38.987Z,4.02
2022-11-27T04:06:38.953Z,4.03
2022-11-27T04:07:39.025Z,4.02
2022-11-27T04:08:38.956Z,4.02
2022-11-27T04:09:38.933Z,4.00
2022-11-27T04:10:38.910Z,4.00
2022-11-27T04:11:38.902Z,4.00
2022-11-27T04:12:38.885Z,4.00
2022-11-27T04:13:38.896Z,3.99
2022-11-27T04:14:39.248Z,3.99
2022-11-27T04:15:38.868Z,3.95
2022-11-27T04:16:38.905Z,3.95
2022-11-27T04:17:38.839Z,3.96
2022-11-27T04:18:38.836Z,3.95
2022-11-27T04:19:38.851Z,3.94
2022-11-27T04:20:38.836Z,3.92
2022-11-27T04:21:38.789Z,3.94
2022-11-27T04:22:38.780Z,3.89
2022-11-27T04:23:38.786Z,3.91
2022-11-27T04:24:39.124Z,3.89
2022-11-27T04:25:38.759Z,3.88
2022-11-27T04:26:38.759Z,3.88
2022-11-27T04:27:38.729Z,3.88
2022-11-27T04:28:38.720Z,3.86
2022-11-27T04:29:38.728Z,3.85
2022-11-27T04:30:38.699Z,3.85
2022-11-27T04:31:38.755Z,3.84
2022-11-27T04:32:38.677Z,3.88
2022-11-27T04:33:38.668Z,3.85
2022-11-27T04:34:39.008Z,3.85
2022-11-27T04:35:38.688Z,3.86
2022-11-27T04:36:39.690Z,3.86
2022-11-27T04:37:38.617Z,3.85
2022-11-27T04:38:38.616Z,3.88
2022-11-27T04:39:38.597Z,3.86
2022-11-27T04:40:38.599Z,3.85
2022-11-27T04:41:38.601Z,3.85
2022-11-27T04:42:38.601Z,3.88
2022-11-27T04:43:38.560Z,3.88
2022-11-27T04:44:39.090Z,3.89
2022-11-27T04:45:38.551Z,3.88
2022-11-27T04:46:38.610Z,3.84
2022-11-27T04:47:38.505Z,3.85
2022-11-27T04:48:38.518Z,3.84
2022-11-27T04:49:38.502Z,3.85
2022-11-27T04:50:38.506Z,3.85
2022-11-27T04:51:38.474Z,3.85
2022-11-27T04:52:38.458Z,3.88
2022-11-27T04:53:38.488Z,3.89
2022-11-27T04:54:38.595Z,3.89
2022-11-27T04:55:38.436Z,3.89
2022-11-27T04:56:38.435Z,3.89
2022-11-27T04:57:38.407Z,3.86
2022-11-27T04:58:38.404Z,3.89
2022-11-27T04:59:38.411Z,3.86
2022-11-27T05:00:38.507Z,3.88
2022-11-27T05:01:38.405Z,3.86
2022-11-27T05:02:38.436Z,3.84
2022-11-27T05:03:38.368Z,3.82
2022-11-27T05:04:38.510Z,3.84
2022-11-27T05:05:38.334Z,3.84
2022-11-27T05:06:38.346Z,3.82
2022-11-27T05:07:38.334Z,3.84
2022-11-27T05:08:38.315Z,3.86
2022-11-27T05:09:38.275Z,3.86
2022-11-27T05:10:38.280Z,3.89
2022-11-27T05:11:38.253Z,3.89
2022-11-27T05:12:38.289Z,3.88
2022-11-27T05:13:38.254Z,3.86
2022-11-27T05:14:38.590Z,3.86
2022-11-27T05:15:38.271Z,3.89
2022-11-27T05:16:38.309Z,3.86
2022-11-27T05:17:38.221Z,3.85
2022-11-27T05:18:38.253Z,3.88
2022-11-27T05:19:38.163Z,3.85
2022-11-27T05:20:38.192Z,3.89
2022-11-27T05:21:38.152Z,3.84
2022-11-27T05:22:38.151Z,3.84
2022-11-27T05:23:38.130Z,3.85
2022-11-27T05:24:38.272Z,3.85
2022-11-27T05:25:38.131Z,3.88
2022-11-27T05:26:38.112Z,3.88
2022-11-27T05:27:38.091Z,3.84
2022-11-27T05:28:39.020Z,3.85
2022-11-27T05:29:38.078Z,3.84
2022-11-27T05:30:38.087Z,3.85
2022-11-27T05:31:38.099Z,3.81
2022-11-27T05:32:38.051Z,3.85
2022-11-27T05:33:38.680Z,3.84
2022-11-27T05:34:38.294Z,3.84
2022-11-27T05:35:37.994Z,3.85
2022-11-27T05:36:38.002Z,3.85
2022-11-27T05:37:37.989Z,3.86
2022-11-27T05:38:37.962Z,3.84
2022-11-27T05:39:37.963Z,3.85
2022-11-27T05:40:37.966Z,3.86
2022-11-27T05:41:37.928Z,3.86
2022-11-27T05:42:37.929Z,3.85
2022-11-27T05:43:37.920Z,3.86
2022-11-27T05:44:38.067Z,3.86
2022-11-27T05:45:37.914Z,3.89
2022-11-27T05:46:37.921Z,3.84
2022-11-27T05:47:37.869Z,3.84
2022-11-27T05:48:37.869Z,3.85
2022-11-27T05:49:37.838Z,3.85
2022-11-27T05:50:37.829Z,3.85
2022-11-27T05:51:37.830Z,3.84
2022-11-27T05:52:37.849Z,3.85
2022-11-27T05:53:37.799Z,3.85
2022-11-27T05:54:37.942Z,3.84
2022-11-27T05:55:37.778Z,3.84
2022-11-27T05:56:37.807Z,3.85
2022-11-27T05:57:37.783Z,3.84
2022-11-27T05:58:37.748Z,3.84
2022-11-27T05:59:37.730Z,3.84
2022-11-27T06:00:37.763Z,3.82
2022-11-27T06:01:37.801Z,3.81
2022-11-27T06:02:37.865Z,3.78
2022-11-27T06:03:37.752Z,3.81
2022-11-27T06:04:37.815Z,3.82
2022-11-27T06:05:37.688Z,3.81
2022-11-27T06:06:37.677Z,3.78
2022-11-27T06:07:37.746Z,3.77
2022-11-27T06:08:37.651Z,3.78
2022-11-27T06:09:37.666Z,3.77
2022-11-27T06:10:37.648Z,3.76
2022-11-27T06:11:37.887Z,3.77
2022-11-27T06:12:37.617Z,3.77
2022-11-27T06:13:37.589Z,3.76
2022-11-27T06:14:37.732Z,3.77
2022-11-27T06:15:37.565Z,3.76
2022-11-27T06:16:37.637Z,3.76
2022-11-27T06:17:37.544Z,3.78
2022-11-27T06:18:37.535Z,3.78
2022-11-27T06:19:37.529Z,3.77
2022-11-27T06:20:42.190Z,3.78
2022-11-27T06:21:38.516Z,3.81
2022-11-27T06:22:37.507Z,3.81
2022-11-27T06:23:37.487Z,3.81
2022-11-27T06:24:37.446Z,3.82
2022-11-27T06:25:37.483Z,3.82
2022-11-27T06:26:37.476Z,3.81
2022-11-27T06:27:37.448Z,3.81
2022-11-27T06:28:37.451Z,3.81
2022-11-27T06:29:37.460Z,3.81
2022-11-27T06:30:37.475Z,3.81
2022-11-27T06:31:37.407Z,3.82
2022-11-27T06:32:37.343Z,3.84
2022-11-27T06:33:37.382Z,3.81
2022-11-27T06:34:37.410Z,3.84
2022-11-27T06:35:37.323Z,3.81
2022-11-27T06:36:37.353Z,3.84
2022-11-27T06:37:37.274Z,3.84
2022-11-27T06:38:37.273Z,3.85
2022-11-27T06:39:37.266Z,3.85
2022-11-27T06:40:37.275Z,3.84
2022-11-27T06:41:37.245Z,3.84
2022-11-27T06:42:37.235Z,3.85
2022-11-27T06:43:37.506Z,3.84
2022-11-27T06:44:37.445Z,3.85
2022-11-27T06:45:37.322Z,3.86
2022-11-27T06:46:37.295Z,3.86
2022-11-27T06:47:37.265Z,3.85
2022-11-27T06:48:37.260Z,3.85
2022-11-27T06:49:37.199Z,3.85
2022-11-27T06:50:37.219Z,3.86
2022-11-27T06:51:37.241Z,3.85
2022-11-27T06:52:40.321Z,3.85
2022-11-27T06:53:37.161Z,3.86
2022-11-27T06:54:37.254Z,3.86
2022-11-27T06:55:37.136Z,3.86
2022-11-27T06:56:37.154Z,3.89
2022-11-27T06:57:37.124Z,3.88
2022-11-27T06:58:37.127Z,3.89
2022-11-27T06:59:37.173Z,3.89
2022-11-27T07:00:37.099Z,3.89
2022-11-27T07:01:37.122Z,3.89
2022-11-27T07:02:37.107Z,3.91
2022-11-27T07:03:37.075Z,3.92
2022-11-27T07:04:37.053Z,3.92
2022-11-27T07:05:37.031Z,3.96
2022-11-27T07:06:37.019Z,3.96
2022-11-27T07:07:41.086Z,3.95
2022-11-27T07:08:37.994Z,4.00
2022-11-27T07:09:37.130Z,3.99
2022-11-27T07:10:37.032Z,3.96
2022-11-27T07:11:36.982Z,3.99
2022-11-27T07:12:37.002Z,4.03
2022-11-27T07:13:36.922Z,4.00
2022-11-27T07:14:36.996Z,4.02
2022-11-27T07:15:36.987Z,4.03
2022-11-27T07:16:36.976Z,4.03
2022-11-27T07:17:36.888Z,4.03
2022-11-27T07:18:36.928Z,4.04
2022-11-27T07:19:36.869Z,4.04
2022-11-27T07:20:36.839Z,4.03
2022-11-27T07:21:36.898Z,4.06
2022-11-27T07:22:36.850Z,4.07
2022-11-27T07:23:36.868Z,4.07
2022-11-27T07:24:36.836Z,4.12
2022-11-27T07:25:36.809Z,4.13
2022-11-27T07:26:36.835Z,4.13
2022-11-27T07:27:36.810Z,4.16
2022-11-27T07:28:36.814Z,4.16
2022-11-27T07:29:36.770Z,4.18
2022-11-27T07:30:36.761Z,4.21
2022-11-27T07:31:36.819Z,4.24
2022-11-27T07:32:36.855Z,4.27
2022-11-27T07:33:36.706Z,4.25
2022-11-27T07:34:36.702Z,4.30
2022-11-27T07:35:36.704Z,4.31
2022-11-27T07:36:36.695Z,4.32
2022-11-27T07:37:36.686Z,4.32
2022-11-27T07:38:36.683Z,4.39
2022-11-27T07:40:00.868Z,4.40
2022-11-27T07:40:37.661Z,4.43
2022-11-27T07:41:36.642Z,4.45
2022-11-27T07:42:38.313Z,4.48
2022-11-27T07:43:36.645Z,4.48
2022-11-27T07:44:36.602Z,4.52
2022-11-27T07:45:36.625Z,4.52
2022-11-27T07:46:36.566Z,4.56
2022-11-27T07:47:36.537Z,4.57
2022-11-27T07:48:36.523Z,4.58
2022-11-27T07:49:36.540Z,4.61
2022-11-27T07:50:36.493Z,4.60
2022-11-27T07:51:36.484Z,4.60
2022-11-27T07:52:41.002Z,4.63
2022-11-27T07:53:37.457Z,4.64
2022-11-27T07:54:36.461Z,4.66
2022-11-27T07:55:36.434Z,4.66
2022-11-27T07:56:36.451Z,4.68
2022-11-27T07:57:36.432Z,4.67
2022-11-27T07:58:36.407Z,4.68
2022-11-27T07:59:36.422Z,4.67
2022-11-27T08:00:36.465Z,4.66
2022-11-27T08:01:36.444Z,4.66
2022-11-27T08:02:36.455Z,4.70
2022-11-27T08:03:36.376Z,4.67
2022-11-27T08:04:36.389Z,4.68
2022-11-27T08:05:36.343Z,4.70
2022-11-27T08:06:36.385Z,4.71
2022-11-27T08:07:36.503Z,4.74
2022-11-27T08:08:36.321Z,4.76
2022-11-27T08:09:36.284Z,4.78
2022-11-27T08:10:36.288Z,4.79
2022-11-27T08:11:36.263Z,4.82
2022-11-27T08:12:36.273Z,4.83
2022-11-27T08:13:36.250Z,4.87
2022-11-27T08:14:36.240Z,4.84
2022-11-27T08:15:36.238Z,4.89
2022-11-27T08:16:36.306Z,4.92
2022-11-27T08:17:36.256Z,4.97
2022-11-27T08:18:36.223Z,4.98
2022-11-27T08:19:36.183Z,5.01
2022-11-27T08:20:36.191Z,5.07
2022-11-27T08:21:36.167Z,5.05
2022-11-27T08:22:36.212Z,5.10
2022-11-27T08:23:36.182Z,5.15
2022-11-27T08:24:36.132Z,5.19
2022-11-27T08:25:36.119Z,5.23
2022-11-27T08:26:36.182Z,5.28
2022-11-27T08:27:36.089Z,5.33
2022-11-27T08:28:36.097Z,5.37
2022-11-27T08:29:36.089Z,5.40
2022-11-27T08:30:36.071Z,5.43
2022-11-27T08:31:36.094Z,5.46
2022-11-27T08:32:36.073Z,5.47
2022-11-27T08:33:36.029Z,5.51
2022-11-27T08:34:36.039Z,5.54
2022-11-27T08:35:36.024Z,5.59
2022-11-27T08:36:36.031Z,5.62
2022-11-27T08:37:35.989Z,5.65
2022-11-27T08:38:35.998Z,5.70
2022-11-27T08:39:35.964Z,5.67
2022-11-27T08:40:35.967Z,5.67
2022-11-27T08:41:36.021Z,5.64
2022-11-27T08:42:35.948Z,5.65
2022-11-27T08:43:36.007Z,5.69
2022-11-27T08:44:35.918Z,5.69
2022-11-27T08:45:36.002Z,5.77
2022-11-27T08:46:35.889Z,5.80
2022-11-27T08:47:35.962Z,5.88
2022-11-27T08:48:36.046Z,5.94
2022-11-27T08:49:38.608Z,5.99
2022-11-27T08:50:35.866Z,6.06
2022-11-27T08:51:36.816Z,6.12
2022-11-27T08:52:35.926Z,6.17
2022-11-27T08:53:35.861Z,6.28
2022-11-27T08:54:35.819Z,6.39
2022-11-27T08:55:35.852Z,6.50
2022-11-27T08:56:35.798Z,6.62
2022-11-27T08:57:35.794Z,6.68
2022-11-27T08:58:35.793Z,6.77
2022-11-27T08:59:35.816Z,6.85
2022-11-27T09:00:35.846Z,6.96
2022-11-27T09:01:35.881Z,7.00
2022-11-27T09:02:35.758Z,7.03
2022-11-27T09:03:35.758Z,7.11
2022-11-27T09:04:35.846Z,7.13
2022-11-27T09:05:35.693Z,7.14
2022-11-27T09:06:35.675Z,7.19
2022-11-27T09:07:35.689Z,7.22
2022-11-27T09:08:35.671Z,7.25
2022-11-27T09:09:35.703Z,7.22
2022-11-27T09:10:35.705Z,7.21
2022-11-27T09:11:35.635Z,7.21
2022-11-27T09:12:38.222Z,7.18
2022-11-27T09:13:36.835Z,7.19
2022-11-27T09:14:35.616Z,7.14
2022-11-27T09:15:35.574Z,7.13
2022-11-27T09:16:35.618Z,7.11
2022-11-27T09:17:35.560Z,7.08
2022-11-27T09:18:35.556Z,7.11
2022-11-27T09:19:35.539Z,7.11
2022-11-27T09:20:35.545Z,7.11
2022-11-27T09:21:35.524Z,7.10
2022-11-27T09:22:35.494Z,7.11
2022-11-27T09:23:35.587Z,7.13
2022-11-27T09:24:35.475Z,7.18
2022-11-27T09:25:35.477Z,7.19
2022-11-27T09:26:35.485Z,7.22
2022-11-27T09:27:35.444Z,7.25
2022-11-27T09:28:35.466Z,7.28
2022-11-27T09:29:35.469Z,7.29
2022-11-27T09:30:35.404Z,7.33
2022-11-27T09:31:35.582Z,7.37
2022-11-27T09:32:35.406Z,7.40
2022-11-27T09:33:35.385Z,7.41
2022-11-27T09:34:37.746Z,7.46
2022-11-27T09:35:35.421Z,7.46
2022-11-27T09:36:35.448Z,7.48
2022-11-27T09:37:35.362Z,7.53
2022-11-27T09:38:35.360Z,7.53
2022-11-27T09:39:35.359Z,7.53
2022-11-27T09:40:35.361Z,7.58
2022-11-27T09:41:35.389Z,7.62
2022-11-27T09:42:35.304Z,7.66
2022-11-27T09:43:35.300Z,7.64
2022-11-27T09:44:35.301Z,7.67
2022-11-27T09:45:35.335Z,7.70
2022-11-27T09:46:35.235Z,7.75
2022-11-27T09:47:39.955Z,7.74
2022-11-27T09:48:36.255Z,7.77
2022-11-27T09:49:35.222Z,7.75
2022-11-27T09:50:35.192Z,7.77
2022-11-27T09:51:35.193Z,7.78
2022-11-27T09:52:35.171Z,7.77
2022-11-27T09:53:35.153Z,7.75
2022-11-27T09:54:35.155Z,7.77
2022-11-27T09:55:35.135Z,7.77
2022-11-27T09:56:35.124Z,7.74
2022-11-27T09:57:35.124Z,7.74
2022-11-27T09:58:35.101Z,7.74
2022-11-27T09:59:35.141Z,7.72
2022-11-27T10:00:35.106Z,7.75
2022-11-27T10:01:44.179Z,7.75
2022-11-27T10:02:36.250Z,7.74
2022-11-27T10:03:35.080Z,7.77
2022-11-27T10:04:58.116Z,7.78
2022-11-27T10:05:36.132Z,7.78
2022-11-27T10:06:35.013Z,7.81
2022-11-27T10:07:35.080Z,7.81
2022-11-27T10:08:35.051Z,7.84
2022-11-27T10:09:35.008Z,7.85
2022-11-27T10:10:34.999Z,7.95
2022-11-27T10:11:35.072Z,7.96
2022-11-27T10:12:34.952Z,8.02
2022-11-27T10:13:34.956Z,8.08
2022-11-27T10:14:34.947Z,8.11
2022-11-27T10:15:34.934Z,8.16
2022-11-27T10:16:34.966Z,8.23
2022-11-27T10:17:34.929Z,8.24
2022-11-27T10:18:34.901Z,8.31
2022-11-27T10:19:34.878Z,8.35
2022-11-27T10:20:34.879Z,8.39
2022-11-27T10:21:34.928Z,8.44
2022-11-27T10:22:34.840Z,8.46
2022-11-27T10:23:34.881Z,8.49
2022-11-27T10:24:34.827Z,8.49
2022-11-27T10:25:34.877Z,8.52
2022-11-27T10:26:34.799Z,8.52
2022-11-27T10:27:34.834Z,8.50
2022-11-27T10:28:34.836Z,8.52
2022-11-27T10:29:34.789Z,8.50
2022-11-27T10:30:34.787Z,8.49
2022-11-27T10:31:34.867Z,8.46
2022-11-27T10:33:35.730Z,8.45
2022-11-27T10:34:34.720Z,8.42
2022-11-27T10:35:34.740Z,8.42
2022-11-27T10:36:34.693Z,8.39
2022-11-27T10:37:34.727Z,8.38
2022-11-27T10:38:34.680Z,8.39
2022-11-27T10:39:34.702Z,8.39
2022-11-27T10:40:34.692Z,8.41
2022-11-27T10:41:48.767Z,8.41
2022-11-27T10:42:35.640Z,8.42
2022-11-27T10:43:34.624Z,8.41
2022-11-27T10:44:34.611Z,8.42
2022-11-27T10:45:34.684Z,8.46
2022-11-27T10:46:34.580Z,8.45
2022-11-27T10:47:34.590Z,8.46
2022-11-27T10:48:34.574Z,8.49
2022-11-27T10:49:34.553Z,8.46
2022-11-27T10:50:34.671Z,8.46
2022-11-27T10:51:34.562Z,8.46
2022-11-27T10:52:34.530Z,8.50
2022-11-27T10:53:34.606Z,8.53
2022-11-27T10:54:34.511Z,8.52
2022-11-27T10:55:34.577Z,8.52
2022-11-27T10:56:34.477Z,8.54
2022-11-27T10:57:34.472Z,8.53
2022-11-27T10:58:34.457Z,8.54
2022-11-27T10:59:35.019Z,8.54
2022-11-27T11:00:34.493Z,8.56
2022-11-27T11:01:34.474Z,8.54
2022-11-27T11:02:34.508Z,8.54
2022-11-27T11:03:34.422Z,8.59
2022-11-27T11:04:38.714Z,8.57
2022-11-27T11:05:56.753Z,8.56
2022-11-27T11:06:35.389Z,8.56
2022-11-27T11:07:34.417Z,8.54
2022-11-27T11:08:34.396Z,8.56
2022-11-27T11:09:34.372Z,8.56
2022-11-27T11:10:34.391Z,8.53
2022-11-27T11:11:34.327Z,8.54
2022-11-27T11:12:34.297Z,8.56
2022-11-27T11:13:34.317Z,8.56
2022-11-27T11:14:34.296Z,8.57
2022-11-27T11:15:34.320Z,8.56
2022-11-27T11:16:35.866Z,8.57
2022-11-27T11:17:34.416Z,8.60
2022-11-27T11:18:34.258Z,8.61
2022-11-27T11:19:34.231Z,8.59
2022-11-27T11:20:34.221Z,8.60
2022-11-27T11:21:34.244Z,8.63
2022-11-27T11:22:34.202Z,8.64
2022-11-27T11:23:34.255Z,8.64
2022-11-27T11:24:34.166Z,8.69
2022-11-27T11:25:34.167Z,8.68
2022-11-27T11:26:34.214Z,8.69
2022-11-27T11:27:34.136Z,8.71
2022-11-27T11:28:39.411Z,8.71
2022-11-27T11:29:35.117Z,8.75
2022-11-27T11:30:34.115Z,8.71
2022-11-27T11:31:34.195Z,8.72
2022-11-27T11:32:34.078Z,8.79
2022-11-27T11:33:34.066Z,8.79
2022-11-27T11:34:34.055Z,8.78
2022-11-27T11:35:34.104Z,8.82
2022-11-27T11:36:34.045Z,8.82
2022-11-27T11:37:34.026Z,8.84
2022-11-27T11:38:34.025Z,8.86
2022-11-27T11:39:34.018Z,8.89
2022-11-27T11:40:33.999Z,8.89
2022-11-27T11:41:34.040Z,8.89
2022-11-27T11:42:34.027Z,8.92
2022-11-27T11:43:33.974Z,8.95
2022-11-27T11:44:33.959Z,8.99
2022-11-27T11:45:34.131Z,8.99
2022-11-27T11:46:34.058Z,8.99
2022-11-27T11:47:33.932Z,9.05
2022-11-27T11:48:34.040Z,9.08
2022-11-27T11:49:33.896Z,9.08
2022-11-27T11:50:33.885Z,9.09
2022-11-27T11:51:33.885Z,9.05
2022-11-27T11:52:33.866Z,9.09
2022-11-27T11:53:33.873Z,9.12
2022-11-27T11:54:33.852Z,9.13
2022-11-27T11:55:33.853Z,9.13
2022-11-27T11:56:33.838Z,9.15
2022-11-27T11:57:33.882Z,9.18
2022-11-27T11:58:33.800Z,9.19
2022-11-27T11:59:33.803Z,9.18
2022-11-27T12:00:43.712Z,9.21
2022-11-27T12:01:34.774Z,9.19
2022-11-27T12:02:33.943Z,9.24
2022-11-27T12:03:33.827Z,9.24
2022-11-27T12:04:33.953Z,9.29
2022-11-27T12:05:33.722Z,9.27
2022-11-27T12:06:33.713Z,9.27
2022-11-27T12:07:33.746Z,9.29
2022-11-27T12:08:33.708Z,9.31
2022-11-27T12:09:33.693Z,9.30
2022-11-27T12:10:33.662Z,9.36
2022-11-27T12:11:33.721Z,9.34
2022-11-27T12:12:33.721Z,9.36
2022-11-27T12:13:33.644Z,9.34
2022-11-27T12:14:33.643Z,9.37
2022-11-27T12:15:33.622Z,9.34
2022-11-27T12:16:33.678Z,9.37
2022-11-27T12:17:33.729Z,9.34
2022-11-27T12:18:33.581Z,9.33
2022-11-27T12:19:33.582Z,9.31
2022-11-27T12:20:33.559Z,9.33
2022-11-27T12:21:33.573Z,9.30
2022-11-27T12:22:33.555Z,9.33
2022-11-27T12:23:33.569Z,9.33
2022-11-27T12:24:33.522Z,9.34
2022-11-27T12:25:33.564Z,9.34
2022-11-27T12:26:33.502Z,9.33
2022-11-27T12:27:33.483Z,9.33
2022-11-27T12:28:33.478Z,9.36
2022-11-27T12:29:33.465Z,9.36
2022-11-27T12:30:33.442Z,9.33
2022-11-27T12:31:33.691Z,9.33
2022-11-27T12:32:33.444Z,9.31
2022-11-27T12:33:33.562Z,9.30
2022-11-27T12:34:33.423Z,9.33
2022-11-27T12:35:33.410Z,9.33
2022-11-27T12:36:33.381Z,9.30
2022-11-27T12:37:33.404Z,9.31
2022-11-27T12:38:33.362Z,9.30
2022-11-27T12:39:33.401Z,9.29
2022-11-27T12:40:33.362Z,9.31
2022-11-27T12:41:33.343Z,9.30
2022-11-27T12:42:33.378Z,9.31
2022-11-27T12:43:33.322Z,9.30
2022-11-27T12:44:33.319Z,9.31
2022-11-27T12:45:33.453Z,9.31
2022-11-27T12:46:33.283Z,9.31
2022-11-27T12:47:38.651Z,9.30
2022-11-27T12:48:34.295Z,9.30
2022-11-27T12:49:33.250Z,9.31
2022-11-27T12:50:33.246Z,9.29
2022-11-27T12:51:33.253Z,9.33
2022-11-27T12:52:33.220Z,9.31
2022-11-27T12:53:33.205Z,9.31
2022-11-27T12:54:33.193Z,9.33
2022-11-27T12:55:33.203Z,9.31
2022-11-27T12:56:33.180Z,9.36
2022-11-27T12:57:33.166Z,9.31
2022-11-27T12:58:33.161Z,9.33
2022-11-27T12:59:33.157Z,9.33
2022-11-27T13:00:33.148Z,9.33
2022-11-27T13:01:33.135Z,9.30
2022-11-27T13:02:33.208Z,9.34
2022-11-27T13:03:33.114Z,9.34
2022-11-27T13:04:33.104Z,9.34
2022-11-27T13:05:33.111Z,9.37
2022-11-27T13:06:33.072Z,9.36
2022-11-27T13:07:33.123Z,9.36
2022-11-27T13:08:33.168Z,9.39
2022-11-27T13:09:33.039Z,9.36
2022-11-27T13:10:33.027Z,9.33
2022-11-27T13:11:33.117Z,9.36
2022-11-27T13:12:33.020Z,9.36
2022-11-27T13:13:32.992Z,9.36
2022-11-27T13:14:32.978Z,9.31
2022-11-27T13:15:32.988Z,9.31
2022-11-27T13:16:33.032Z,9.33
2022-11-27T13:17:33.060Z,9.30
2022-11-27T13:18:32.976Z,9.31
2022-11-27T13:19:33.035Z,9.30